CSPL LEPA-LEVC
Flight info
| Callsign | CSPL |
|---|---|
| Flight time | 1h 3m |
| Altitude | 2500 |
| Route | VFR |
| Aircraft | DA62/L-SDFGRY/C |
Departure
| Time | 2026-05-08 13:47 |
|---|---|
| Airport | Palma de Mallorca Airport (LEPA) |
Arrival
| Time | 2026-05-08 14:50 |
|---|---|
| Airport | Valencia Airport (LEVC) |
| Time | Latitude | Longitude | Altitude | Speed | Heading |
|---|---|---|---|---|---|
| 2026-05-08 13:41 | 39.54250 | 2.72636 | 33 ft | 0 kts | 149° |
| 2026-05-08 13:42 | 39.54233 | 2.72661 | 33 ft | 7 kts | 85° |
| 2026-05-08 13:42 | 39.54240 | 2.72722 | 33 ft | 10 kts | 55° |
| 2026-05-08 13:43 | 39.54265 | 2.72834 | 33 ft | 10 kts | 147° |
| 2026-05-08 13:43 | 39.54214 | 2.72876 | 33 ft | 8 kts | 121° |
| 2026-05-08 13:43 | 39.54206 | 2.72892 | 33 ft | 0 kts | 142° |
| 2026-05-08 13:45 | 39.54203 | 2.72895 | 33 ft | 4 kts | 146° |
| 2026-05-08 13:45 | 39.54154 | 2.72961 | 33 ft | 11 kts | 106° |
| 2026-05-08 13:45 | 39.54152 | 2.73067 | 33 ft | 18 kts | 88° |
| 2026-05-08 13:46 | 39.54155 | 2.73222 | 33 ft | 18 kts | 79° |
| 2026-05-08 13:46 | 39.54223 | 2.73370 | 33 ft | 21 kts | 58° |
| 2026-05-08 13:46 | 39.54334 | 2.73610 | 33 ft | 55 kts | 58° |
| 2026-05-08 13:46 | 39.54612 | 2.74215 | 88 ft | 94 kts | 60° |
| 2026-05-08 13:47 | 39.54946 | 2.74968 | 425 ft | 94 kts | 57° |
| 2026-05-08 13:47 | 39.55254 | 2.75848 | 656 ft | 113 kts | 82° |
| 2026-05-08 13:47 | 39.54811 | 2.76494 | 1091 ft | 118 kts | 161° |
| 2026-05-08 13:47 | 39.53959 | 2.76773 | 1306 ft | 130 kts | 156° |
| 2026-05-08 13:48 | 39.53098 | 2.77250 | 1545 ft | 141 kts | 153° |
| 2026-05-08 13:48 | 39.52163 | 2.77680 | 1856 ft | 142 kts | 165° |
| 2026-05-08 13:48 | 39.51176 | 2.77929 | 2077 ft | 148 kts | 163° |
| 2026-05-08 13:48 | 39.50176 | 2.78312 | 2288 ft | 151 kts | 155° |
| 2026-05-08 13:49 | 39.49184 | 2.78797 | 2496 ft | 155 kts | 157° |
| 2026-05-08 13:49 | 39.48119 | 2.79245 | 2515 ft | 166 kts | 160° |
| 2026-05-08 13:49 | 39.46992 | 2.79674 | 2510 ft | 171 kts | 160° |
| 2026-05-08 13:49 | 39.45840 | 2.80101 | 2519 ft | 173 kts | 160° |
| 2026-05-08 13:50 | 39.44675 | 2.80535 | 2518 ft | 175 kts | 160° |
| 2026-05-08 13:50 | 39.43491 | 2.80976 | 2520 ft | 178 kts | 161° |
| 2026-05-08 13:50 | 39.42299 | 2.81419 | 2506 ft | 180 kts | 160° |
| 2026-05-08 13:50 | 39.41101 | 2.81861 | 2510 ft | 177 kts | 161° |
| 2026-05-08 13:51 | 39.39875 | 2.82025 | 2505 ft | 180 kts | 181° |
| 2026-05-08 13:51 | 39.38658 | 2.81628 | 2503 ft | 183 kts | 200° |
| 2026-05-08 13:51 | 39.37604 | 2.80691 | 2495 ft | 185 kts | 221° |
| 2026-05-08 13:51 | 39.36853 | 2.79311 | 2519 ft | 194 kts | 243° |
| 2026-05-08 13:52 | 39.36534 | 2.77605 | 2502 ft | 197 kts | 266° |
| 2026-05-08 13:52 | 39.36564 | 2.75839 | 2500 ft | 196 kts | 270° |
| 2026-05-08 13:52 | 39.36603 | 2.74101 | 2515 ft | 191 kts | 270° |
| 2026-05-08 13:52 | 39.36643 | 2.72429 | 2743 ft | 179 kts | 270° |
| 2026-05-08 13:53 | 39.36677 | 2.70920 | 3286 ft | 159 kts | 270° |
| 2026-05-08 13:53 | 39.36709 | 2.69469 | 3500 ft | 170 kts | 270° |
| 2026-05-08 13:53 | 39.36741 | 2.67867 | 3499 ft | 184 kts | 271° |
| 2026-05-08 13:53 | 39.36778 | 2.66198 | 3507 ft | 186 kts | 271° |
| 2026-05-08 13:54 | 39.36814 | 2.64557 | 3499 ft | 178 kts | 271° |
| 2026-05-08 13:54 | 39.36848 | 2.63018 | 3492 ft | 169 kts | 270° |
| 2026-05-08 13:54 | 39.36878 | 2.61596 | 3492 ft | 149 kts | 270° |
| 2026-05-08 13:54 | 39.36906 | 2.60361 | 3496 ft | 135 kts | 269° |
| 2026-05-08 13:55 | 39.36930 | 2.59094 | 3495 ft | 146 kts | 270° |
| 2026-05-08 13:55 | 39.36958 | 2.57756 | 3503 ft | 150 kts | 270° |
| 2026-05-08 13:55 | 39.37016 | 2.54997 | 3511 ft | 156 kts | 270° |
| 2026-05-08 13:56 | 39.37045 | 2.53576 | 3508 ft | 160 kts | 270° |
| 2026-05-08 13:56 | 39.37074 | 2.52138 | 3510 ft | 161 kts | 271° |
| 2026-05-08 13:56 | 39.37105 | 2.50691 | 3511 ft | 161 kts | 271° |
| 2026-05-08 13:56 | 39.37105 | 2.49249 | 3523 ft | 159 kts | 264° |
| 2026-05-08 13:57 | 39.36955 | 2.47864 | 3622 ft | 148 kts | 284° |
| 2026-05-08 13:57 | 39.37121 | 2.46489 | 3437 ft | 162 kts | 254° |
| 2026-05-08 13:57 | 39.36948 | 2.45162 | 3512 ft | 155 kts | 283° |
| 2026-05-08 13:57 | 39.37212 | 2.43811 | 3510 ft | 156 kts | 275° |
| 2026-05-08 13:58 | 39.37269 | 2.42403 | 3501 ft | 158 kts | 271° |
| 2026-05-08 13:58 | 39.37299 | 2.40978 | 3502 ft | 159 kts | 270° |
| 2026-05-08 13:58 | 39.37326 | 2.39553 | 3498 ft | 159 kts | 270° |
| 2026-05-08 13:58 | 39.37353 | 2.38119 | 3500 ft | 160 kts | 270° |
| 2026-05-08 13:59 | 39.37381 | 2.36682 | 3499 ft | 160 kts | 270° |
| 2026-05-08 13:59 | 39.37408 | 2.35243 | 3501 ft | 161 kts | 270° |
| 2026-05-08 13:59 | 39.37435 | 2.33795 | 3499 ft | 161 kts | 270° |
| 2026-05-08 13:59 | 39.37454 | 2.32836 | 3497 ft | 161 kts | 270° |
| 2026-05-08 14:00 | 39.37490 | 2.30912 | 3497 ft | 162 kts | 270° |
| 2026-05-08 14:00 | 39.37517 | 2.29452 | 3488 ft | 162 kts | 270° |
| 2026-05-08 14:00 | 39.37544 | 2.27996 | 3490 ft | 162 kts | 270° |
| 2026-05-08 14:00 | 39.37571 | 2.26538 | 3490 ft | 162 kts | 270° |
| 2026-05-08 14:01 | 39.37597 | 2.25083 | 3491 ft | 162 kts | 270° |
| 2026-05-08 14:01 | 39.37623 | 2.23627 | 3498 ft | 162 kts | 270° |
| 2026-05-08 14:01 | 39.37641 | 2.22662 | 3495 ft | 163 kts | 270° |
| 2026-05-08 14:01 | 39.37667 | 2.21198 | 3494 ft | 163 kts | 270° |
| 2026-05-08 14:02 | 39.37702 | 2.19222 | 3497 ft | 165 kts | 270° |
| 2026-05-08 14:02 | 39.37719 | 2.18244 | 3493 ft | 163 kts | 270° |
| 2026-05-08 14:02 | 39.37745 | 2.16783 | 3492 ft | 163 kts | 270° |
| 2026-05-08 14:02 | 39.37770 | 2.15326 | 3493 ft | 162 kts | 270° |
| 2026-05-08 14:03 | 39.37795 | 2.13872 | 3494 ft | 162 kts | 270° |
| 2026-05-08 14:03 | 39.37820 | 2.12416 | 3498 ft | 162 kts | 270° |
| 2026-05-08 14:03 | 39.37845 | 2.10960 | 3500 ft | 162 kts | 270° |
| 2026-05-08 14:03 | 39.37869 | 2.09496 | 3498 ft | 162 kts | 270° |
| 2026-05-08 14:04 | 39.37894 | 2.08040 | 3499 ft | 162 kts | 270° |
| 2026-05-08 14:04 | 39.37918 | 2.06582 | 3495 ft | 162 kts | 269° |
| 2026-05-08 14:04 | 39.37942 | 2.05125 | 3500 ft | 163 kts | 270° |
| 2026-05-08 14:04 | 39.37966 | 2.03658 | 3501 ft | 164 kts | 269° |
| 2026-05-08 14:05 | 39.37990 | 2.02166 | 3500 ft | 169 kts | 270° |
| 2026-05-08 14:05 | 39.38014 | 2.00640 | 3493 ft | 169 kts | 270° |
| 2026-05-08 14:05 | 39.38039 | 1.99131 | 3493 ft | 167 kts | 269° |
| 2026-05-08 14:05 | 39.38063 | 1.97645 | 3488 ft | 164 kts | 270° |
| 2026-05-08 14:06 | 39.38086 | 1.96177 | 3489 ft | 162 kts | 269° |
| 2026-05-08 14:06 | 39.38108 | 1.94726 | 3487 ft | 162 kts | 269° |
| 2026-05-08 14:06 | 39.38131 | 1.93271 | 3486 ft | 162 kts | 270° |
| 2026-05-08 14:06 | 39.38153 | 1.91819 | 3485 ft | 162 kts | 269° |
| 2026-05-08 14:07 | 39.38175 | 1.90366 | 3487 ft | 162 kts | 270° |
| 2026-05-08 14:07 | 39.38198 | 1.88912 | 3486 ft | 162 kts | 270° |
| 2026-05-08 14:07 | 39.38218 | 1.87481 | 3486 ft | 161 kts | 270° |
| 2026-05-08 14:07 | 39.38241 | 1.86034 | 3487 ft | 161 kts | 270° |
| 2026-05-08 14:08 | 39.38261 | 1.84581 | 3488 ft | 162 kts | 269° |
| 2026-05-08 14:08 | 39.38282 | 1.83123 | 3487 ft | 163 kts | 270° |
| 2026-05-08 14:08 | 39.38304 | 1.81653 | 3494 ft | 165 kts | 270° |
| 2026-05-08 14:08 | 39.38326 | 1.80156 | 3492 ft | 167 kts | 269° |
| 2026-05-08 14:09 | 39.38346 | 1.78655 | 3488 ft | 166 kts | 270° |
| 2026-05-08 14:09 | 39.38368 | 1.77169 | 3488 ft | 164 kts | 269° |
| 2026-05-08 14:09 | 39.38389 | 1.75706 | 3486 ft | 162 kts | 269° |
| 2026-05-08 14:09 | 39.38409 | 1.74251 | 3493 ft | 161 kts | 269° |
| 2026-05-08 14:10 | 39.38428 | 1.72802 | 3489 ft | 161 kts | 269° |
| 2026-05-08 14:10 | 39.38448 | 1.71346 | 3491 ft | 163 kts | 269° |
| 2026-05-08 14:10 | 39.38468 | 1.69877 | 3484 ft | 163 kts | 269° |
| 2026-05-08 14:10 | 39.38488 | 1.68419 | 3489 ft | 161 kts | 270° |
| 2026-05-08 14:11 | 39.38506 | 1.66967 | 3486 ft | 162 kts | 270° |
| 2026-05-08 14:11 | 39.38526 | 1.65520 | 3488 ft | 161 kts | 269° |
| 2026-05-08 14:11 | 39.38544 | 1.64069 | 3497 ft | 162 kts | 270° |
| 2026-05-08 14:11 | 39.38562 | 1.62607 | 3503 ft | 168 kts | 270° |
| 2026-05-08 14:12 | 39.38583 | 1.61081 | 3620 ft | 162 kts | 269° |
| 2026-05-08 14:12 | 39.38601 | 1.59747 | 4025 ft | 139 kts | 269° |
| 2026-05-08 14:12 | 39.38616 | 1.58516 | 4247 ft | 137 kts | 269° |
| 2026-05-08 14:12 | 39.38630 | 1.57287 | 4422 ft | 137 kts | 269° |
| 2026-05-08 14:13 | 39.38646 | 1.56065 | 4596 ft | 135 kts | 269° |
| 2026-05-08 14:13 | 39.38660 | 1.54848 | 4730 ft | 135 kts | 269° |
| 2026-05-08 14:13 | 39.38675 | 1.53641 | 4872 ft | 134 kts | 269° |
| 2026-05-08 14:13 | 39.38689 | 1.52434 | 5009 ft | 134 kts | 269° |
| 2026-05-08 14:14 | 39.38704 | 1.51233 | 5143 ft | 133 kts | 269° |
| 2026-05-08 14:14 | 39.38717 | 1.50040 | 5286 ft | 132 kts | 269° |
| 2026-05-08 14:14 | 39.38731 | 1.48850 | 5425 ft | 132 kts | 269° |
| 2026-05-08 14:14 | 39.38745 | 1.47670 | 5559 ft | 131 kts | 269° |
| 2026-05-08 14:15 | 39.38759 | 1.46494 | 5697 ft | 130 kts | 268° |
| 2026-05-08 14:15 | 39.38772 | 1.45326 | 5829 ft | 130 kts | 269° |
| 2026-05-08 14:15 | 39.38785 | 1.44162 | 5974 ft | 129 kts | 269° |
| 2026-05-08 14:15 | 39.38798 | 1.42975 | 6001 ft | 136 kts | 269° |
| 2026-05-08 14:16 | 39.38811 | 1.41724 | 6002 ft | 141 kts | 268° |
| 2026-05-08 14:16 | 39.38825 | 1.40440 | 6011 ft | 145 kts | 269° |
| 2026-05-08 14:16 | 39.38839 | 1.39131 | 6011 ft | 147 kts | 269° |
| 2026-05-08 14:16 | 39.38854 | 1.37805 | 6010 ft | 148 kts | 268° |
| 2026-05-08 14:17 | 39.38868 | 1.36470 | 6011 ft | 149 kts | 269° |
| 2026-05-08 14:17 | 39.38883 | 1.35124 | 6010 ft | 156 kts | 269° |
| 2026-05-08 14:17 | 39.38896 | 1.33654 | 6012 ft | 170 kts | 269° |
| 2026-05-08 14:17 | 39.38912 | 1.32092 | 6009 ft | 177 kts | 269° |
| 2026-05-08 14:18 | 39.38929 | 1.30475 | 6007 ft | 182 kts | 269° |
| 2026-05-08 14:18 | 39.38946 | 1.28833 | 6005 ft | 183 kts | 269° |
| 2026-05-08 14:18 | 39.38962 | 1.27190 | 6009 ft | 184 kts | 269° |
| 2026-05-08 14:18 | 39.38978 | 1.25529 | 6009 ft | 185 kts | 269° |
| 2026-05-08 14:19 | 39.38994 | 1.23865 | 6009 ft | 185 kts | 269° |
| 2026-05-08 14:19 | 39.39010 | 1.22198 | 6006 ft | 185 kts | 269° |
| 2026-05-08 14:19 | 39.39026 | 1.20559 | 6008 ft | 185 kts | 269° |
| 2026-05-08 14:19 | 39.39040 | 1.18889 | 6010 ft | 185 kts | 269° |
| 2026-05-08 14:20 | 39.39055 | 1.17224 | 6006 ft | 185 kts | 269° |
| 2026-05-08 14:20 | 39.39070 | 1.15563 | 6005 ft | 185 kts | 269° |
| 2026-05-08 14:20 | 39.39084 | 1.13904 | 6007 ft | 185 kts | 269° |
| 2026-05-08 14:20 | 39.39099 | 1.12237 | 6008 ft | 185 kts | 268° |
| 2026-05-08 14:21 | 39.39113 | 1.10575 | 6007 ft | 186 kts | 269° |
| 2026-05-08 14:21 | 39.39126 | 1.08900 | 6009 ft | 186 kts | 269° |
| 2026-05-08 14:21 | 39.39140 | 1.07234 | 6013 ft | 186 kts | 269° |
| 2026-05-08 14:21 | 39.39153 | 1.05566 | 6011 ft | 186 kts | 269° |
| 2026-05-08 14:22 | 39.39166 | 1.03895 | 6011 ft | 186 kts | 269° |
| 2026-05-08 14:22 | 39.39179 | 1.02226 | 6010 ft | 186 kts | 269° |
| 2026-05-08 14:22 | 39.39192 | 1.00555 | 6008 ft | 186 kts | 269° |
| 2026-05-08 14:22 | 39.39204 | 0.98882 | 6007 ft | 186 kts | 269° |
| 2026-05-08 14:23 | 39.39217 | 0.97207 | 6011 ft | 186 kts | 269° |
| 2026-05-08 14:23 | 39.39228 | 0.95531 | 6007 ft | 186 kts | 269° |
| 2026-05-08 14:23 | 39.39240 | 0.93855 | 6007 ft | 186 kts | 269° |
| 2026-05-08 14:23 | 39.39251 | 0.92175 | 6010 ft | 186 kts | 269° |
| 2026-05-08 14:24 | 39.39263 | 0.90521 | 6009 ft | 186 kts | 269° |
| 2026-05-08 14:24 | 39.39274 | 0.88843 | 6009 ft | 187 kts | 269° |
| 2026-05-08 14:24 | 39.39285 | 0.87159 | 6012 ft | 187 kts | 269° |
| 2026-05-08 14:24 | 39.39295 | 0.85480 | 6013 ft | 187 kts | 269° |
| 2026-05-08 14:25 | 39.39305 | 0.83802 | 6012 ft | 187 kts | 269° |
| 2026-05-08 14:25 | 39.39315 | 0.82123 | 6010 ft | 187 kts | 269° |
| 2026-05-08 14:25 | 39.39325 | 0.80440 | 6012 ft | 187 kts | 269° |
| 2026-05-08 14:25 | 39.39335 | 0.78758 | 6013 ft | 187 kts | 269° |
| 2026-05-08 14:26 | 39.39343 | 0.77081 | 6012 ft | 187 kts | 269° |
| 2026-05-08 14:26 | 39.39353 | 0.75398 | 6008 ft | 187 kts | 268° |
| 2026-05-08 14:26 | 39.39362 | 0.73738 | 6009 ft | 187 kts | 269° |
| 2026-05-08 14:26 | 39.39370 | 0.72056 | 6012 ft | 187 kts | 268° |
| 2026-05-08 14:27 | 39.39379 | 0.70377 | 6008 ft | 187 kts | 268° |
| 2026-05-08 14:27 | 39.39387 | 0.68701 | 6011 ft | 187 kts | 268° |
| 2026-05-08 14:27 | 39.39395 | 0.67021 | 6008 ft | 186 kts | 268° |
| 2026-05-08 14:27 | 39.39402 | 0.65342 | 6008 ft | 187 kts | 268° |
| 2026-05-08 14:28 | 39.39409 | 0.63661 | 6008 ft | 187 kts | 268° |
| 2026-05-08 14:28 | 39.39417 | 0.61983 | 6011 ft | 187 kts | 268° |
| 2026-05-08 14:28 | 39.39424 | 0.60301 | 6012 ft | 187 kts | 268° |
| 2026-05-08 14:28 | 39.39430 | 0.58624 | 6013 ft | 187 kts | 268° |
| 2026-05-08 14:29 | 39.39437 | 0.56942 | 6011 ft | 187 kts | 268° |
| 2026-05-08 14:29 | 39.39443 | 0.55262 | 6013 ft | 187 kts | 268° |
| 2026-05-08 14:29 | 39.39448 | 0.53584 | 6011 ft | 187 kts | 268° |
| 2026-05-08 14:29 | 39.39454 | 0.51906 | 6012 ft | 187 kts | 268° |
| 2026-05-08 14:30 | 39.39460 | 0.50250 | 6013 ft | 186 kts | 268° |
| 2026-05-08 14:30 | 39.39465 | 0.48578 | 6010 ft | 186 kts | 268° |
| 2026-05-08 14:30 | 39.39470 | 0.46903 | 6010 ft | 186 kts | 268° |
| 2026-05-08 14:30 | 39.39474 | 0.45232 | 6008 ft | 186 kts | 268° |
| 2026-05-08 14:31 | 39.39479 | 0.43558 | 6014 ft | 186 kts | 268° |
| 2026-05-08 14:31 | 39.39484 | 0.41886 | 6012 ft | 186 kts | 268° |
| 2026-05-08 14:31 | 39.39487 | 0.40212 | 6011 ft | 186 kts | 268° |
| 2026-05-08 14:32 | 39.39495 | 0.36872 | 6016 ft | 186 kts | 268° |
| 2026-05-08 14:32 | 39.39498 | 0.35196 | 6013 ft | 186 kts | 268° |
| 2026-05-08 14:32 | 39.39500 | 0.33519 | 6011 ft | 186 kts | 268° |
| 2026-05-08 14:32 | 39.39503 | 0.31841 | 6015 ft | 187 kts | 268° |
| 2026-05-08 14:33 | 39.39506 | 0.30164 | 6006 ft | 187 kts | 268° |
| 2026-05-08 14:33 | 39.39508 | 0.28504 | 6009 ft | 187 kts | 268° |
| 2026-05-08 14:33 | 39.39510 | 0.26830 | 6007 ft | 186 kts | 268° |
| 2026-05-08 14:33 | 39.39512 | 0.25152 | 6006 ft | 186 kts | 268° |
| 2026-05-08 14:34 | 39.39514 | 0.23478 | 6008 ft | 186 kts | 268° |
| 2026-05-08 14:34 | 39.39515 | 0.21803 | 6012 ft | 186 kts | 268° |
| 2026-05-08 14:34 | 39.39516 | 0.20133 | 6010 ft | 186 kts | 268° |
| 2026-05-08 14:34 | 39.39518 | 0.18464 | 6011 ft | 186 kts | 268° |
| 2026-05-08 14:35 | 39.39518 | 0.16790 | 6011 ft | 186 kts | 268° |
| 2026-05-08 14:35 | 39.39518 | 0.15119 | 6012 ft | 186 kts | 268° |
| 2026-05-08 14:35 | 39.39519 | 0.13451 | 6012 ft | 186 kts | 268° |
| 2026-05-08 14:35 | 39.39518 | 0.11783 | 6012 ft | 186 kts | 268° |
| 2026-05-08 14:36 | 39.39518 | 0.10111 | 6011 ft | 185 kts | 268° |
| 2026-05-08 14:36 | 39.39518 | 0.08445 | 6008 ft | 185 kts | 268° |
| 2026-05-08 14:36 | 39.39517 | 0.06783 | 6011 ft | 185 kts | 268° |
| 2026-05-08 14:36 | 39.39516 | 0.05114 | 6009 ft | 185 kts | 268° |
| 2026-05-08 14:37 | 39.39514 | 0.03447 | 5994 ft | 186 kts | 268° |
| 2026-05-08 14:37 | 39.39514 | 0.01854 | 5161 ft | 168 kts | 268° |
| 2026-05-08 14:37 | 39.39512 | 0.00355 | 3955 ft | 164 kts | 269° |
| 2026-05-08 14:37 | 39.39510 | -0.01015 | 3289 ft | 144 kts | 270° |
| 2026-05-08 14:38 | 39.39509 | -0.02216 | 2921 ft | 123 kts | 270° |
| 2026-05-08 14:38 | 39.39507 | -0.03223 | 2739 ft | 102 kts | 270° |
| 2026-05-08 14:38 | 39.39506 | -0.04052 | 2618 ft | 84 kts | 270° |
| 2026-05-08 14:38 | 39.39505 | -0.04795 | 2485 ft | 88 kts | 269° |
| 2026-05-08 14:39 | 39.39504 | -0.05763 | 2562 ft | 125 kts | 270° |
| 2026-05-08 14:39 | 39.39502 | -0.07010 | 2623 ft | 150 kts | 270° |
| 2026-05-08 14:39 | 39.39499 | -0.08432 | 2667 ft | 165 kts | 270° |
| 2026-05-08 14:39 | 39.39495 | -0.09944 | 2682 ft | 173 kts | 270° |
| 2026-05-08 14:40 | 39.39492 | -0.11529 | 2681 ft | 178 kts | 270° |
| 2026-05-08 14:40 | 39.39489 | -0.13141 | 2681 ft | 181 kts | 270° |
| 2026-05-08 14:40 | 39.39485 | -0.14786 | 2611 ft | 185 kts | 270° |
| 2026-05-08 14:40 | 39.39480 | -0.16481 | 2459 ft | 191 kts | 270° |
| 2026-05-08 14:41 | 39.39476 | -0.18199 | 2363 ft | 191 kts | 270° |
| 2026-05-08 14:41 | 39.39472 | -0.19896 | 2259 ft | 192 kts | 270° |
| 2026-05-08 14:41 | 39.39467 | -0.21645 | 2173 ft | 192 kts | 269° |
| 2026-05-08 14:41 | 39.39461 | -0.23347 | 2085 ft | 192 kts | 270° |
| 2026-05-08 14:42 | 39.39456 | -0.25085 | 2013 ft | 192 kts | 269° |
| 2026-05-08 14:42 | 39.39450 | -0.26799 | 2011 ft | 190 kts | 269° |
| 2026-05-08 14:42 | 39.39445 | -0.28492 | 2015 ft | 188 kts | 269° |
| 2026-05-08 14:42 | 39.39438 | -0.30180 | 2012 ft | 187 kts | 270° |
| 2026-05-08 14:43 | 39.39431 | -0.31856 | 2007 ft | 186 kts | 269° |
| 2026-05-08 14:43 | 39.39425 | -0.33547 | 2006 ft | 195 kts | 269° |
| 2026-05-08 14:43 | 39.39418 | -0.35155 | 2038 ft | 151 kts | 267° |
| 2026-05-08 14:43 | 39.39417 | -0.36388 | 2008 ft | 143 kts | 269° |
| 2026-05-08 14:44 | 39.39406 | -0.37759 | 2044 ft | 149 kts | 268° |
| 2026-05-08 14:44 | 39.39407 | -0.39041 | 2010 ft | 135 kts | 269° |
| 2026-05-08 14:44 | 39.39395 | -0.40204 | 2000 ft | 121 kts | 268° |
| 2026-05-08 14:44 | 39.39394 | -0.41217 | 1998 ft | 107 kts | 269° |
| 2026-05-08 14:45 | 39.39388 | -0.42157 | 2013 ft | 112 kts | 269° |
| 2026-05-08 14:45 | 39.39384 | -0.43352 | 2027 ft | 153 kts | 269° |
| 2026-05-08 14:45 | 39.39438 | -0.44834 | 2025 ft | 178 kts | 285° |
| 2026-05-08 14:45 | 39.40128 | -0.46188 | 2034 ft | 185 kts | 319° |
| 2026-05-08 14:46 | 39.41264 | -0.46948 | 2018 ft | 186 kts | 350° |
| 2026-05-08 14:46 | 39.42519 | -0.46901 | 2016 ft | 182 kts | 14° |
| 2026-05-08 14:46 | 39.42851 | -0.46807 | 2019 ft | 182 kts | 15° |
| 2026-05-08 14:46 | 39.43412 | -0.46651 | 1998 ft | 183 kts | 14° |
| 2026-05-08 14:47 | 39.44641 | -0.46335 | 2013 ft | 181 kts | 13° |
| 2026-05-08 14:47 | 39.45902 | -0.46076 | 1799 ft | 190 kts | 2° |
| 2026-05-08 14:47 | 39.47041 | -0.46692 | 1661 ft | 162 kts | 316° |
| 2026-05-08 14:48 | 39.47521 | -0.47853 | 1248 ft | 139 kts | 283° |
| 2026-05-08 14:48 | 39.47805 | -0.48960 | 978 ft | 120 kts | 296° |
| 2026-05-08 14:48 | 39.48166 | -0.49891 | 767 ft | 108 kts | 298° |
| 2026-05-08 14:48 | 39.48542 | -0.50829 | 1042 ft | 125 kts | 298° |
| 2026-05-08 14:49 | 39.48946 | -0.51850 | 973 ft | 125 kts | 309° |
| 2026-05-08 14:49 | 39.49640 | -0.52095 | 786 ft | 98 kts | 17° |
| 2026-05-08 14:49 | 39.50053 | -0.51937 | 666 ft | 87 kts | 27° |
| 2026-05-08 14:49 | 39.50100 | -0.51244 | 457 ft | 90 kts | 117° |
| 2026-05-08 14:50 | 39.49833 | -0.50502 | 409 ft | 97 kts | 120° |
| 2026-05-08 14:50 | 39.49633 | -0.50030 | 299 ft | 81 kts | 110° |
| 2026-05-08 14:50 | 39.49431 | -0.49472 | 228 ft | 55 kts | 106° |
| 2026-05-08 14:50 | 39.49303 | -0.49164 | 224 ft | 21 kts | 150° |
| 2026-05-08 14:51 | 39.49214 | -0.49193 | 225 ft | 12 kts | 207° |
| 2026-05-08 14:51 | 39.49143 | -0.49236 | 227 ft | 18 kts | 213° |
| 2026-05-08 14:51 | 39.49054 | -0.49246 | 228 ft | 12 kts | 118° |
| 2026-05-08 14:51 | 39.48995 | -0.49087 | 224 ft | 26 kts | 116° |
| 2026-05-08 14:52 | 39.48888 | -0.48830 | 213 ft | 38 kts | 103° |
| 2026-05-08 14:52 | 39.48711 | -0.48337 | 212 ft | 21 kts | 117° |
| 2026-05-08 14:52 | 39.48644 | -0.48171 | 207 ft | 18 kts | 137° |
| 2026-05-08 14:53 | 39.48538 | -0.48154 | 200 ft | 16 kts | 175° |
| 2026-05-08 14:53 | 39.48407 | -0.48159 | 199 ft | 20 kts | 182° |
| 2026-05-08 14:53 | 39.48266 | -0.48159 | 198 ft | 16 kts | 161° |
| 2026-05-08 14:53 | 39.48226 | -0.48109 | 197 ft | 6 kts | 178° |
| 2026-05-08 14:54 | 39.48178 | -0.48108 | 198 ft | 0 kts | 177° |